sensor_id;sensor_type;location;lat;lon;timestamp;pressure;altitude;pressure_sealevel;temperature;humidity
41712;BME280;27399;51.516;13.670;2024-01-07T00:02:06;100453.28;;;1.91;81.71
41712;BME280;27399;51.516;13.670;2024-01-07T00:04:31;100444.06;;;2.07;80.70
41712;BME280;27399;51.516;13.670;2024-01-07T00:06:59;100459.41;;;1.91;81.01
41712;BME280;27399;51.516;13.670;2024-01-07T00:09:24;100459.59;;;1.97;80.78
41712;BME280;27399;51.516;13.670;2024-01-07T00:11:50;100460.00;;;2.13;80.50
41712;BME280;27399;51.516;13.670;2024-01-07T00:14:15;100456.56;;;2.15;80.48
41712;BME280;27399;51.516;13.670;2024-01-07T00:16:42;100458.38;;;2.18;80.98
41712;BME280;27399;51.516;13.670;2024-01-07T00:19:07;100457.16;;;2.39;80.18
41712;BME280;27399;51.516;13.670;2024-01-07T00:21:33;100458.84;;;2.37;80.32
41712;BME280;27399;51.516;13.670;2024-01-07T00:23:58;100463.81;;;2.24;80.31
41712;BME280;27399;51.516;13.670;2024-01-07T00:26:23;100459.94;;;2.10;80.18
41712;BME280;27399;51.516;13.670;2024-01-07T00:28:49;100467.47;;;2.31;80.31
41712;BME280;27399;51.516;13.670;2024-01-07T00:31:14;100467.25;;;2.22;79.75
41712;BME280;27399;51.516;13.670;2024-01-07T00:33:39;100476.22;;;2.30;79.13
41712;BME280;27399;51.516;13.670;2024-01-07T00:36:05;100482.81;;;2.14;79.43
41712;BME280;27399;51.516;13.670;2024-01-07T00:38:30;100473.31;;;2.19;79.34
41712;BME280;27399;51.516;13.670;2024-01-07T00:40:55;100476.25;;;1.98;80.53
41712;BME280;27399;51.516;13.670;2024-01-07T00:43:21;100475.00;;;2.15;79.51
41712;BME280;27399;51.516;13.670;2024-01-07T00:45:46;100488.34;;;2.23;78.93
41712;BME280;27399;51.516;13.670;2024-01-07T00:48:11;100491.66;;;1.84;78.70
41712;BME280;27399;51.516;13.670;2024-01-07T00:50:37;100486.16;;;2.07;79.48
41712;BME280;27399;51.516;13.670;2024-01-07T00:53:02;100488.09;;;2.14;79.12
41712;BME280;27399;51.516;13.670;2024-01-07T00:55:27;100489.88;;;2.15;78.85
41712;BME280;27399;51.516;13.670;2024-01-07T00:57:53;100489.72;;;2.42;79.01
41712;BME280;27399;51.516;13.670;2024-01-07T01:00:18;100492.81;;;2.26;78.52
41712;BME280;27399;51.516;13.670;2024-01-07T01:02:44;100489.34;;;2.27;78.28
41712;BME280;27399;51.516;13.670;2024-01-07T01:05:09;100491.25;;;2.34;79.21
41712;BME280;27399;51.516;13.670;2024-01-07T01:07:34;100500.81;;;2.30;79.28
41712;BME280;27399;51.516;13.670;2024-01-07T01:10:00;100502.44;;;2.25;78.86
41712;BME280;27399;51.516;13.670;2024-01-07T01:12:25;100506.56;;;2.15;78.18
41712;BME280;27399;51.516;13.670;2024-01-07T01:14:50;100507.78;;;2.28;77.89
41712;BME280;27399;51.516;13.670;2024-01-07T01:17:16;100513.00;;;2.27;78.06
41712;BME280;27399;51.516;13.670;2024-01-07T01:19:41;100512.13;;;1.94;77.66
41712;BME280;27399;51.516;13.670;2024-01-07T01:22:06;100516.69;;;2.01;78.16
41712;BME280;27399;51.516;13.670;2024-01-07T01:24:32;100523.34;;;2.21;77.82
41712;BME280;27399;51.516;13.670;2024-01-07T01:26:57;100523.72;;;2.01;77.94
41712;BME280;27399;51.516;13.670;2024-01-07T01:29:22;100520.19;;;2.32;77.90
41712;BME280;27399;51.516;13.670;2024-01-07T01:31:48;100528.44;;;1.82;78.80
41712;BME280;27399;51.516;13.670;2024-01-07T01:34:13;100527.53;;;2.12;78.78
41712;BME280;27399;51.516;13.670;2024-01-07T01:36:38;100532.22;;;2.24;77.76
41712;BME280;27399;51.516;13.670;2024-01-07T01:39:04;100534.94;;;2.27;77.52
41712;BME280;27399;51.516;13.670;2024-01-07T01:41:29;100532.03;;;2.16;77.44
41712;BME280;27399;51.516;13.670;2024-01-07T01:43:58;100534.34;;;2.06;78.21
41712;BME280;27399;51.516;13.670;2024-01-07T01:46:23;100547.47;;;1.74;78.58
41712;BME280;27399;51.516;13.670;2024-01-07T01:48:49;100549.44;;;2.13;77.26
41712;BME280;27399;51.516;13.670;2024-01-07T01:51:14;100548.50;;;1.79;78.34
41712;BME280;27399;51.516;13.670;2024-01-07T01:53:40;100547.59;;;1.78;78.25
41712;BME280;27399;51.516;13.670;2024-01-07T01:56:05;100542.09;;;1.99;77.65
41712;BME280;27399;51.516;13.670;2024-01-07T01:58:31;100544.22;;;1.82;77.05
41712;BME280;27399;51.516;13.670;2024-01-07T02:00:57;100548.56;;;2.12;77.09
41712;BME280;27399;51.516;13.670;2024-01-07T02:03:23;100544.63;;;1.96;77.38
41712;BME280;27399;51.516;13.670;2024-01-07T02:05:49;100544.38;;;2.19;77.82
41712;BME280;27399;51.516;13.670;2024-01-07T02:08:16;100552.53;;;1.98;77.23
41712;BME280;27399;51.516;13.670;2024-01-07T02:10:42;100544.13;;;2.10;76.49
41712;BME280;27399;51.516;13.670;2024-01-07T02:13:07;100545.97;;;2.14;75.94
41712;BME280;27399;51.516;13.670;2024-01-07T02:15:33;100548.84;;;1.91;75.92
41712;BME280;27399;51.516;13.670;2024-01-07T02:17:59;100545.94;;;2.12;75.14
41712;BME280;27399;51.516;13.670;2024-01-07T02:20:24;100546.22;;;2.23;76.07
41712;BME280;27399;51.516;13.670;2024-01-07T02:22:50;100556.69;;;2.20;75.92
41712;BME280;27399;51.516;13.670;2024-01-07T02:25:16;100561.66;;;1.79;77.40
41712;BME280;27399;51.516;13.670;2024-01-07T02:27:41;100565.97;;;2.07;76.19
41712;BME280;27399;51.516;13.670;2024-01-07T02:30:07;100562.28;;;2.00;76.40
41712;BME280;27399;51.516;13.670;2024-01-07T02:32:32;100568.72;;;2.12;75.63
41712;BME280;27399;51.516;13.670;2024-01-07T02:35:00;100569.72;;;1.85;76.41
41712;BME280;27399;51.516;13.670;2024-01-07T02:37:26;100573.91;;;2.09;76.12
41712;BME280;27399;51.516;13.670;2024-01-07T02:39:51;100579.16;;;1.78;77.52
41712;BME280;27399;51.516;13.670;2024-01-07T02:42:17;100575.69;;;2.10;76.78
41712;BME280;27399;51.516;13.670;2024-01-07T02:44:42;100576.03;;;1.90;76.48
41712;BME280;27399;51.516;13.670;2024-01-07T02:47:07;100580.00;;;2.06;75.75
41712;BME280;27399;51.516;13.670;2024-01-07T02:49:33;100580.72;;;2.00;76.27
41712;BME280;27399;51.516;13.670;2024-01-07T02:51:58;100583.53;;;1.78;75.46
41712;BME280;27399;51.516;13.670;2024-01-07T02:54:23;100591.75;;;1.89;75.66
41712;BME280;27399;51.516;13.670;2024-01-07T02:56:49;100589.25;;;1.93;74.95
41712;BME280;27399;51.516;13.670;2024-01-07T02:59:14;100579.34;;;2.15;74.75
41712;BME280;27399;51.516;13.670;2024-01-07T03:01:39;100582.78;;;2.12;75.14
41712;BME280;27399;51.516;13.670;2024-01-07T03:04:06;100582.47;;;2.01;76.58
41712;BME280;27399;51.516;13.670;2024-01-07T03:06:32;100589.63;;;2.07;76.05
41712;BME280;27399;51.516;13.670;2024-01-07T03:08:58;100584.72;;;2.20;75.59
41712;BME280;27399;51.516;13.670;2024-01-07T03:11:23;100593.69;;;1.65;75.44
41712;BME280;27399;51.516;13.670;2024-01-07T03:13:48;100593.19;;;2.08;74.80
41712;BME280;27399;51.516;13.670;2024-01-07T03:16:20;100587.19;;;1.83;75.37
41712;BME280;27399;51.516;13.670;2024-01-07T03:18:46;100595.72;;;2.05;75.89
41712;BME280;27399;51.516;13.670;2024-01-07T03:23:43;100598.25;;;2.01;76.23
41712;BME280;27399;51.516;13.670;2024-01-07T03:26:08;100604.84;;;1.87;76.13
41712;BME280;27399;51.516;13.670;2024-01-07T03:28:34;100599.88;;;1.96;76.17
41712;BME280;27399;51.516;13.670;2024-01-07T03:31:03;100607.00;;;2.00;75.56
41712;BME280;27399;51.516;13.670;2024-01-07T03:33:28;100606.19;;;2.03;75.24
41712;BME280;27399;51.516;13.670;2024-01-07T03:35:54;100606.66;;;1.88;75.40
41712;BME280;27399;51.516;13.670;2024-01-07T03:38:19;100609.69;;;2.02;74.60
41712;BME280;27399;51.516;13.670;2024-01-07T03:40:44;100613.41;;;2.10;75.19
41712;BME280;27399;51.516;13.670;2024-01-07T03:43:10;100609.72;;;2.04;75.44
41712;BME280;27399;51.516;13.670;2024-01-07T03:45:36;100611.13;;;1.92;74.82
41712;BME280;27399;51.516;13.670;2024-01-07T03:48:01;100615.78;;;2.01;74.33
41712;BME280;27399;51.516;13.670;2024-01-07T03:50:27;100618.56;;;2.07;74.66
41712;BME280;27399;51.516;13.670;2024-01-07T03:52:52;100611.19;;;1.94;75.47
41712;BME280;27399;51.516;13.670;2024-01-07T03:55:17;100617.72;;;2.08;75.52
41712;BME280;27399;51.516;13.670;2024-01-07T03:57:43;100611.50;;;2.05;74.65
41712;BME280;27399;51.516;13.670;2024-01-07T04:00:08;100619.75;;;2.17;74.76
41712;BME280;27399;51.516;13.670;2024-01-07T04:02:34;100624.44;;;1.68;75.51
41712;BME280;27399;51.516;13.670;2024-01-07T04:05:00;100623.91;;;2.09;73.92
41712;BME280;27399;51.516;13.670;2024-01-07T04:07:25;100618.31;;;1.67;74.90
41712;BME280;27399;51.516;13.670;2024-01-07T04:09:50;100627.03;;;1.66;75.44
41712;BME280;27399;51.516;13.670;2024-01-07T04:12:16;100623.84;;;1.77;74.72
41712;BME280;27399;51.516;13.670;2024-01-07T04:14:42;100630.50;;;1.94;75.12
41712;BME280;27399;51.516;13.670;2024-01-07T04:17:08;100632.28;;;1.66;75.45
41712;BME280;27399;51.516;13.670;2024-01-07T04:19:35;100624.91;;;1.83;73.63
41712;BME280;27399;51.516;13.670;2024-01-07T04:22:01;100630.69;;;1.72;74.78
41712;BME280;27399;51.516;13.670;2024-01-07T04:24:26;100630.94;;;1.52;75.05
41712;BME280;27399;51.516;13.670;2024-01-07T04:26:51;100635.72;;;1.64;74.49
41712;BME280;27399;51.516;13.670;2024-01-07T04:29:17;100632.75;;;1.82;74.48
41712;BME280;27399;51.516;13.670;2024-01-07T04:31:42;100646.56;;;1.75;74.45
41712;BME280;27399;51.516;13.670;2024-01-07T04:34:07;100637.94;;;1.79;73.79
41712;BME280;27399;51.516;13.670;2024-01-07T04:36:33;100650.13;;;1.77;73.74
41712;BME280;27399;51.516;13.670;2024-01-07T04:38:58;100653.50;;;1.73;73.32
41712;BME280;27399;51.516;13.670;2024-01-07T04:41:23;100653.22;;;1.36;73.99
41712;BME280;27399;51.516;13.670;2024-01-07T04:43:49;100654.81;;;1.58;73.89
41712;BME280;27399;51.516;13.670;2024-01-07T04:46:14;100650.59;;;1.63;74.31
41712;BME280;27399;51.516;13.670;2024-01-07T04:48:40;100659.47;;;1.67;73.71
41712;BME280;27399;51.516;13.670;2024-01-07T04:51:06;100656.00;;;1.68;73.47
41712;BME280;27399;51.516;13.670;2024-01-07T04:53:33;100651.53;;;1.65;72.75
41712;BME280;27399;51.516;13.670;2024-01-07T04:55:58;100657.69;;;1.38;74.19
41712;BME280;27399;51.516;13.670;2024-01-07T04:58:23;100661.53;;;1.50;74.30
41712;BME280;27399;51.516;13.670;2024-01-07T05:00:49;100667.19;;;1.62;74.28
41712;BME280;27399;51.516;13.670;2024-01-07T05:03:14;100660.72;;;1.51;73.43
41712;BME280;27399;51.516;13.670;2024-01-07T05:05:39;100669.25;;;1.44;74.15
41712;BME280;27399;51.516;13.670;2024-01-07T05:08:05;100670.19;;;1.46;74.19
41712;BME280;27399;51.516;13.670;2024-01-07T05:10:30;100673.31;;;1.61;73.40
41712;BME280;27399;51.516;13.670;2024-01-07T05:12:55;100678.47;;;1.58;73.43
41712;BME280;27399;51.516;13.670;2024-01-07T05:15:21;100684.63;;;1.59;73.78
41712;BME280;27399;51.516;13.670;2024-01-07T05:17:46;100692.75;;;1.13;73.29
41712;BME280;27399;51.516;13.670;2024-01-07T05:20:11;100687.84;;;1.50;73.40
41712;BME280;27399;51.516;13.670;2024-01-07T05:22:37;100690.94;;;1.64;73.05
41712;BME280;27399;51.516;13.670;2024-01-07T05:25:02;100687.50;;;1.66;73.15
41712;BME280;27399;51.516;13.670;2024-01-07T05:27:27;100695.41;;;1.66;74.35
41712;BME280;27399;51.516;13.670;2024-01-07T05:29:53;100699.44;;;1.03;73.81
41712;BME280;27399;51.516;13.670;2024-01-07T05:32:20;100694.47;;;1.38;72.15
41712;BME280;27399;51.516;13.670;2024-01-07T05:34:46;100701.31;;;1.33;71.68
41712;BME280;27399;51.516;13.670;2024-01-07T05:37:11;100701.44;;;1.36;72.08
41712;BME280;27399;51.516;13.670;2024-01-07T05:39:36;100709.09;;;1.56;72.14
41712;BME280;27399;51.516;13.670;2024-01-07T05:42:02;100707.41;;;1.06;73.07
41712;BME280;27399;51.516;13.670;2024-01-07T05:44:27;100703.13;;;1.34;72.51
41712;BME280;27399;51.516;13.670;2024-01-07T05:46:52;100710.16;;;1.35;72.85
41712;BME280;27399;51.516;13.670;2024-01-07T05:49:18;100705.66;;;1.59;72.23
41712;BME280;27399;51.516;13.670;2024-01-07T05:51:43;100709.63;;;1.46;73.27
41712;BME280;27399;51.516;13.670;2024-01-07T05:54:08;100716.56;;;1.44;73.03
41712;BME280;27399;51.516;13.670;2024-01-07T05:56:41;100727.13;;;1.45;73.23
41712;BME280;27399;51.516;13.670;2024-01-07T05:59:07;100727.34;;;1.51;73.55
41712;BME280;27399;51.516;13.670;2024-01-07T06:01:32;100736.38;;;1.60;72.13
41712;BME280;27399;51.516;13.670;2024-01-07T06:03:57;100734.72;;;1.63;72.66
41712;BME280;27399;51.516;13.670;2024-01-07T06:06:23;100730.81;;;1.50;71.50
41712;BME280;27399;51.516;13.670;2024-01-07T06:08:48;100741.88;;;1.67;70.66
41712;BME280;27399;51.516;13.670;2024-01-07T06:11:13;100753.50;;;1.48;71.13
41712;BME280;27399;51.516;13.670;2024-01-07T06:13:45;100749.47;;;1.58;70.47
41712;BME280;27399;51.516;13.670;2024-01-07T06:16:11;100757.44;;;1.61;71.13
41712;BME280;27399;51.516;13.670;2024-01-07T06:18:36;100763.84;;;1.69;69.89
41712;BME280;27399;51.516;13.670;2024-01-07T06:21:01;100765.06;;;1.53;70.38
41712;BME280;27399;51.516;13.670;2024-01-07T06:23:27;100769.25;;;1.47;69.96
41712;BME280;27399;51.516;13.670;2024-01-07T06:25:52;100775.03;;;1.36;71.14
41712;BME280;27399;51.516;13.670;2024-01-07T06:28:18;100772.97;;;1.28;70.04
41712;BME280;27399;51.516;13.670;2024-01-07T06:30:43;100776.69;;;1.34;69.18
41712;BME280;27399;51.516;13.670;2024-01-07T06:33:09;100781.97;;;1.34;70.69
41712;BME280;27399;51.516;13.670;2024-01-07T06:35:34;100784.94;;;1.45;69.86
41712;BME280;27399;51.516;13.670;2024-01-07T06:37:59;100786.97;;;1.28;70.62
41712;BME280;27399;51.516;13.670;2024-01-07T06:40:25;100792.78;;;1.44;69.12
41712;BME280;27399;51.516;13.670;2024-01-07T06:42:50;100791.53;;;1.08;70.62
41712;BME280;27399;51.516;13.670;2024-01-07T06:45:16;100789.72;;;1.31;69.26
41712;BME280;27399;51.516;13.670;2024-01-07T06:47:42;100792.66;;;1.15;69.16
41712;BME280;27399;51.516;13.670;2024-01-07T06:50:08;100789.81;;;0.84;70.01
41712;BME280;27399;51.516;13.670;2024-01-07T06:52:33;100799.34;;;1.06;70.24
41712;BME280;27399;51.516;13.670;2024-01-07T06:54:59;100792.16;;;1.25;69.67
41712;BME280;27399;51.516;13.670;2024-01-07T06:57:24;100800.53;;;0.90;69.69
41712;BME280;27399;51.516;13.670;2024-01-07T06:59:49;100806.81;;;0.94;70.18
41712;BME280;27399;51.516;13.670;2024-01-07T07:02:15;100800.81;;;0.98;69.11
41712;BME280;27399;51.516;13.670;2024-01-07T07:04:40;100805.81;;;1.15;68.75
41712;BME280;27399;51.516;13.670;2024-01-07T07:07:05;100812.25;;;0.76;69.79
41712;BME280;27399;51.516;13.670;2024-01-07T07:09:31;100817.66;;;1.03;69.09
41712;BME280;27399;51.516;13.670;2024-01-07T07:11:56;100819.44;;;1.04;69.14
41712;BME280;27399;51.516;13.670;2024-01-07T07:14:21;100823.91;;;0.83;69.36
41712;BME280;27399;51.516;13.670;2024-01-07T07:16:47;100831.53;;;0.76;69.20
41712;BME280;27399;51.516;13.670;2024-01-07T07:19:12;100838.06;;;0.88;69.45
41712;BME280;27399;51.516;13.670;2024-01-07T07:21:39;100840.00;;;0.69;68.90
41712;BME280;27399;51.516;13.670;2024-01-07T07:24:05;100836.19;;;0.61;69.16
41712;BME280;27399;51.516;13.670;2024-01-07T07:26:30;100844.41;;;0.93;68.08
41712;BME280;27399;51.516;13.670;2024-01-07T07:28:56;100855.81;;;0.71;69.39
41712;BME280;27399;51.516;13.670;2024-01-07T07:31:21;100860.06;;;0.67;68.57
41712;BME280;27399;51.516;13.670;2024-01-07T07:33:47;100854.94;;;0.70;67.59
41712;BME280;27399;51.516;13.670;2024-01-07T07:36:12;100863.81;;;0.74;68.75
41712;BME280;27399;51.516;13.670;2024-01-07T07:38:37;100867.25;;;0.96;68.09
41712;BME280;27399;51.516;13.670;2024-01-07T07:41:03;100860.88;;;0.89;68.12
41712;BME280;27399;51.516;13.670;2024-01-07T07:43:28;100857.53;;;0.93;68.77
41712;BME280;27399;51.516;13.670;2024-01-07T07:45:54;100865.56;;;0.73;68.07
41712;BME280;27399;51.516;13.670;2024-01-07T07:48:20;100869.53;;;0.64;67.79
41712;BME280;27399;51.516;13.670;2024-01-07T07:50:45;100876.41;;;0.83;68.06
41712;BME280;27399;51.516;13.670;2024-01-07T07:53:10;100882.63;;;0.62;68.71
41712;BME280;27399;51.516;13.670;2024-01-07T07:55:36;100879.88;;;0.82;67.28
41712;BME280;27399;51.516;13.670;2024-01-07T07:58:01;100886.38;;;0.69;68.34
41712;BME280;27399;51.516;13.670;2024-01-07T08:00:27;100895.25;;;0.50;67.41
41712;BME280;27399;51.516;13.670;2024-01-07T08:02:52;100895.28;;;0.72;67.03
41712;BME280;27399;51.516;13.670;2024-01-07T08:05:18;100898.00;;;0.53;68.54
41712;BME280;27399;51.516;13.670;2024-01-07T08:07:43;100901.34;;;0.71;66.64
41712;BME280;27399;51.516;13.670;2024-01-07T08:10:09;100907.94;;;0.83;67.46
41712;BME280;27399;51.516;13.670;2024-01-07T08:12:34;100914.59;;;0.74;67.18
41712;BME280;27399;51.516;13.670;2024-01-07T08:15:00;100909.63;;;0.37;67.86
41712;BME280;27399;51.516;13.670;2024-01-07T08:17:25;100911.69;;;0.45;67.00
41712;BME280;27399;51.516;13.670;2024-01-07T08:19:51;100919.47;;;0.65;67.09
41712;BME280;27399;51.516;13.670;2024-01-07T08:22:17;100912.19;;;0.58;66.54
41712;BME280;27399;51.516;13.670;2024-01-07T08:24:42;100916.16;;;0.25;66.51
41712;BME280;27399;51.516;13.670;2024-01-07T08:27:08;100907.75;;;0.34;66.35
41712;BME280;27399;51.516;13.670;2024-01-07T08:29:34;100916.06;;;0.45;66.21
41712;BME280;27399;51.516;13.670;2024-01-07T08:31:59;100919.44;;;0.42;65.59
41712;BME280;27399;51.516;13.670;2024-01-07T08:34:24;100917.44;;;0.58;65.21
41712;BME280;27399;51.516;13.670;2024-01-07T08:36:50;100922.25;;;0.91;64.85
41712;BME280;27399;51.516;13.670;2024-01-07T08:39:15;100924.25;;;0.75;64.96
41712;BME280;27399;51.516;13.670;2024-01-07T08:41:41;100927.81;;;0.55;65.12
41712;BME280;27399;51.516;13.670;2024-01-07T08:44:06;100930.16;;;0.92;66.25
41712;BME280;27399;51.516;13.670;2024-01-07T08:46:33;100935.72;;;1.00;64.88
41712;BME280;27399;51.516;13.670;2024-01-07T08:49:01;100931.19;;;0.96;65.24
41712;BME280;27399;51.516;13.670;2024-01-07T08:51:26;100931.84;;;0.90;64.58
41712;BME280;27399;51.516;13.670;2024-01-07T08:53:52;100939.53;;;1.08;65.10
41712;BME280;27399;51.516;13.670;2024-01-07T08:56:17;100944.41;;;0.98;65.03
41712;BME280;27399;51.516;13.670;2024-01-07T08:58:43;100956.03;;;0.82;65.40
41712;BME280;27399;51.516;13.670;2024-01-07T09:01:08;100957.78;;;0.60;64.82
41712;BME280;27399;51.516;13.670;2024-01-07T09:03:34;100964.56;;;0.55;66.23
41712;BME280;27399;51.516;13.670;2024-01-07T09:05:59;100950.50;;;0.75;64.79
41712;BME280;27399;51.516;13.670;2024-01-07T09:08:25;100965.06;;;0.67;65.92
41712;BME280;27399;51.516;13.670;2024-01-07T09:10:50;100965.53;;;0.78;64.57
41712;BME280;27399;51.516;13.670;2024-01-07T09:13:15;100964.94;;;1.31;64.26
41712;BME280;27399;51.516;13.670;2024-01-07T09:15:41;100966.75;;;1.33;63.94
41712;BME280;27399;51.516;13.670;2024-01-07T09:18:06;100967.06;;;1.18;63.99
41712;BME280;27399;51.516;13.670;2024-01-07T09:20:32;100987.63;;;0.85;64.30
41712;BME280;27399;51.516;13.670;2024-01-07T09:22:58;100986.19;;;1.14;63.91
41712;BME280;27399;51.516;13.670;2024-01-07T09:25:23;100993.03;;;1.11;63.31
41712;BME280;27399;51.516;13.670;2024-01-07T09:27:49;100990.66;;;1.17;64.25
41712;BME280;27399;51.516;13.670;2024-01-07T09:30:14;100991.50;;;1.16;63.09
41712;BME280;27399;51.516;13.670;2024-01-07T09:32:40;100987.28;;;1.19;63.64
41712;BME280;27399;51.516;13.670;2024-01-07T09:35:06;100982.25;;;2.23;63.00
41712;BME280;27399;51.516;13.670;2024-01-07T09:37:31;100984.16;;;3.09;60.06
41712;BME280;27399;51.516;13.670;2024-01-07T09:39:57;100974.44;;;3.99;58.09
41712;BME280;27399;51.516;13.670;2024-01-07T09:42:22;100972.72;;;5.08;55.79
41712;BME280;27399;51.516;13.670;2024-01-07T09:44:48;100980.91;;;6.03;54.48
41712;BME280;27399;51.516;13.670;2024-01-07T09:47:15;100973.97;;;7.18;52.78
41712;BME280;27399;51.516;13.670;2024-01-07T09:49:41;100975.63;;;7.09;51.89
41712;BME280;27399;51.516;13.670;2024-01-07T09:52:07;100989.97;;;6.65;52.00
41712;BME280;27399;51.516;13.670;2024-01-07T09:54:33;100988.63;;;6.39;51.89
41712;BME280;27399;51.516;13.670;2024-01-07T09:57:01;100985.47;;;7.87;50.01
41712;BME280;27399;51.516;13.670;2024-01-07T09:59:30;100992.38;;;8.51;49.26
41712;BME280;27399;51.516;13.670;2024-01-07T10:01:58;100978.72;;;9.22;47.38
41712;BME280;27399;51.516;13.670;2024-01-07T10:04:24;100979.03;;;11.48;46.51
41712;BME280;27399;51.516;13.670;2024-01-07T10:06:49;100989.97;;;12.71;44.98
41712;BME280;27399;51.516;13.670;2024-01-07T10:09:15;100980.63;;;13.92;43.43
41712;BME280;27399;51.516;13.670;2024-01-07T10:11:41;100983.63;;;14.36;42.76
41712;BME280;27399;51.516;13.670;2024-01-07T10:14:06;100978.75;;;16.04;41.23
41712;BME280;27399;51.516;13.670;2024-01-07T10:16:32;100977.06;;;17.76;39.60
41712;BME280;27399;51.516;13.670;2024-01-07T10:18:58;100981.84;;;17.98;38.69
41712;BME280;27399;51.516;13.670;2024-01-07T10:21:23;100982.47;;;16.74;38.73
41712;BME280;27399;51.516;13.670;2024-01-07T10:23:49;100991.81;;;16.23;40.23
41712;BME280;27399;51.516;13.670;2024-01-07T10:26:15;100998.91;;;15.85;41.09
41712;BME280;27399;51.516;13.670;2024-01-07T10:28:40;101003.69;;;15.69;40.89
41712;BME280;27399;51.516;13.670;2024-01-07T10:31:05;101001.47;;;14.95;40.56
41712;BME280;27399;51.516;13.670;2024-01-07T10:33:31;101004.22;;;13.66;42.55
41712;BME280;27399;51.516;13.670;2024-01-07T10:36:05;101003.81;;;13.18;43.12
41712;BME280;27399;51.516;13.670;2024-01-07T10:38:31;101007.94;;;12.49;43.37
41712;BME280;27399;51.516;13.670;2024-01-07T10:40:56;101015.50;;;11.70;44.20
41712;BME280;27399;51.516;13.670;2024-01-07T10:43:24;101019.13;;;10.26;45.32
41712;BME280;27399;51.516;13.670;2024-01-07T10:45:51;101013.88;;;10.85;45.02
41712;BME280;27399;51.516;13.670;2024-01-07T10:48:17;101004.69;;;11.98;44.34
41712;BME280;27399;51.516;13.670;2024-01-07T10:50:44;101013.72;;;10.04;46.27
41712;BME280;27399;51.516;13.670;2024-01-07T10:53:10;101006.25;;;9.26;47.11
41712;BME280;27399;51.516;13.670;2024-01-07T10:55:39;101005.03;;;8.77;48.46
41712;BME280;27399;51.516;13.670;2024-01-07T10:58:07;101001.66;;;7.35;49.89
41712;BME280;27399;51.516;13.670;2024-01-07T11:00:32;101014.50;;;6.52;52.00
41712;BME280;27399;51.516;13.670;2024-01-07T11:03:18;101010.00;;;5.59;52.52
41712;BME280;27399;51.516;13.670;2024-01-07T11:06:05;101004.97;;;5.71;53.50
41712;BME280;27399;51.516;13.670;2024-01-07T11:08:39;101002.94;;;7.04;52.25
41712;BME280;27399;51.516;13.670;2024-01-07T11:11:08;101005.81;;;7.18;52.22
41712;BME280;27399;51.516;13.670;2024-01-07T11:13:36;100999.00;;;7.35;51.09
41712;BME280;27399;51.516;13.670;2024-01-07T11:16:03;101012.53;;;6.42;51.44
41712;BME280;27399;51.516;13.670;2024-01-07T11:18:28;101006.97;;;6.77;52.14
41712;BME280;27399;51.516;13.670;2024-01-07T11:21:00;101009.41;;;6.64;52.66
41712;BME280;27399;51.516;13.670;2024-01-07T11:23:29;101005.59;;;6.01;53.29
41712;BME280;27399;51.516;13.670;2024-01-07T11:26:01;101000.69;;;7.32;52.75
41712;BME280;27399;51.516;13.670;2024-01-07T11:28:42;100997.94;;;7.91;51.16
41712;BME280;27399;51.516;13.670;2024-01-07T11:31:07;101008.00;;;7.48;50.85
41712;BME280;27399;51.516;13.670;2024-01-07T11:33:34;101001.63;;;8.04;50.32
41712;BME280;27399;51.516;13.670;2024-01-07T11:36:02;101004.28;;;9.00;49.09
41712;BME280;27399;51.516;13.670;2024-01-07T11:38:28;101002.97;;;8.48;47.62
41712;BME280;27399;51.516;13.670;2024-01-07T11:40:53;100999.25;;;9.40;48.28
41712;BME280;27399;51.516;13.670;2024-01-07T11:43:20;100999.63;;;10.80;46.62
41712;BME280;27399;51.516;13.670;2024-01-07T11:45:45;100998.34;;;12.22;45.53
41712;BME280;27399;51.516;13.670;2024-01-07T11:48:11;101005.06;;;12.79;43.46
41712;BME280;27399;51.516;13.670;2024-01-07T11:50:36;101001.31;;;13.00;43.36
41712;BME280;27399;51.516;13.670;2024-01-07T11:53:02;100998.19;;;12.44;44.51
41712;BME280;27399;51.516;13.670;2024-01-07T11:55:27;101003.91;;;9.97;45.28
41712;BME280;27399;51.516;13.670;2024-01-07T11:57:57;101002.28;;;10.53;45.76
41712;BME280;27399;51.516;13.670;2024-01-07T12:00:22;101014.09;;;9.06;46.66
41712;BME280;27399;51.516;13.670;2024-01-07T12:02:48;101004.91;;;10.33;46.37
41712;BME280;27399;51.516;13.670;2024-01-07T12:05:13;100994.22;;;11.46;44.84
41712;BME280;27399;51.516;13.670;2024-01-07T12:07:41;101001.50;;;14.37;43.06
41712;BME280;27399;51.516;13.670;2024-01-07T12:10:09;101004.06;;;14.44;42.42
41712;BME280;27399;51.516;13.670;2024-01-07T12:12:41;101000.59;;;14.95;42.31
41712;BME280;27399;51.516;13.670;2024-01-07T12:15:07;101010.47;;;12.71;43.56
41712;BME280;27399;51.516;13.670;2024-01-07T12:17:33;101004.03;;;11.23;45.75
41712;BME280;27399;51.516;13.670;2024-01-07T12:19:59;101011.09;;;10.24;46.57
41712;BME280;27399;51.516;13.670;2024-01-07T12:22:26;101014.13;;;9.10;47.38
41712;BME280;27399;51.516;13.670;2024-01-07T12:25:07;101016.88;;;8.24;49.30
41712;BME280;27399;51.516;13.670;2024-01-07T12:27:33;101012.41;;;7.46;50.76
41712;BME280;27399;51.516;13.670;2024-01-07T12:29:59;101015.84;;;6.80;51.30
41712;BME280;27399;51.516;13.670;2024-01-07T12:32:28;101002.16;;;6.54;52.50
41712;BME280;27399;51.516;13.670;2024-01-07T12:34:53;101003.88;;;6.03;53.29
41712;BME280;27399;51.516;13.670;2024-01-07T12:37:21;101008.50;;;5.72;53.81
41712;BME280;27399;51.516;13.670;2024-01-07T12:39:47;101012.72;;;8.49;50.43
41712;BME280;27399;51.516;13.670;2024-01-07T12:42:12;101003.88;;;9.85;48.03
41712;BME280;27399;51.516;13.670;2024-01-07T12:44:38;101009.25;;;9.96;47.59